createdAt,value
2022-09-03T00:00:06.218Z,99764.59
2022-09-03T00:02:17.842Z,99772.75
2022-09-03T00:04:27.941Z,99769.81
2022-09-03T00:06:41.143Z,99775.19
2022-09-03T00:08:58.991Z,99778.63
2022-09-03T00:11:04.272Z,99776.19
2022-09-03T00:13:05.974Z,99785.06
2022-09-03T00:15:15.268Z,99780.56
2022-09-03T00:17:18.568Z,99796.66
2022-09-03T00:19:31.883Z,99788.09
2022-09-03T00:21:51.359Z,99793.47
2022-09-03T00:23:53.049Z,99804.22
2022-09-03T00:26:00.884Z,99809.59
2022-09-03T00:28:03.299Z,99793.47
2022-09-03T00:30:08.664Z,99797.84
2022-09-03T00:32:32.424Z,99800.44
2022-09-03T00:34:39.217Z,99798.00
2022-09-03T00:36:41.887Z,99797.75
2022-09-03T00:38:43.639Z,99800.44
2022-09-03T00:41:13.020Z,99804.31
2022-09-03T00:43:45.441Z,99809.59
2022-09-03T00:46:19.797Z,99829.22
2022-09-03T00:48:27.964Z,99817.72
2022-09-03T00:50:53.017Z,99823.97
2022-09-03T00:52:58.523Z,99833.22
2022-09-03T00:55:25.662Z,99830.78
2022-09-03T00:57:39.507Z,99830.66
2022-09-03T00:59:59.481Z,99834.94
2022-09-03T01:02:31.881Z,99833.22
2022-09-03T01:04:48.615Z,99835.81
2022-09-03T01:07:11.678Z,99834.31
2022-09-03T01:09:29.629Z,99839.53
2022-09-03T01:11:34.024Z,99827.84
2022-09-03T01:13:35.519Z,99837.84
2022-09-03T01:16:04.634Z,99833.22
2022-09-03T01:18:12.337Z,99829.69
2022-09-03T01:20:16.740Z,99842.22
2022-09-03T01:22:42.212Z,99837.84
2022-09-03T01:25:35.897Z,99837.09
2022-09-03T01:27:55.748Z,99838.09
2022-09-03T01:30:05.405Z,99842.47
2022-09-03T01:32:27.442Z,99842.47
2022-09-03T01:35:04.394Z,99843.31
2022-09-03T01:37:18.860Z,99854.19
2022-09-03T01:39:47.585Z,99858.56
2022-09-03T01:41:58.129Z,99860.41
2022-09-03T01:44:18.252Z,99856.13
2022-09-03T01:46:23.945Z,99860.50
2022-09-03T01:48:34.759Z,99860.41
2022-09-03T01:50:56.582Z,99865.03
2022-09-03T01:52:59.704Z,99870.28
2022-09-03T01:55:24.337Z,99872.97
2022-09-03T01:57:57.039Z,99870.41
2022-09-03T02:00:04.013Z,99869.41
2022-09-03T02:02:09.298Z,99878.34
2022-09-03T02:04:25.427Z,99891.63
2022-09-03T02:06:27.940Z,99879.94
2022-09-03T02:08:29.611Z,99886.38
2022-09-03T02:10:46.296Z,99889.06
2022-09-03T02:12:51.220Z,99887.13
2022-09-03T02:14:52.841Z,99891.41
2022-09-03T02:16:56.171Z,99892.50
2022-09-03T02:19:03.624Z,99897.00
2022-09-03T02:21:05.499Z,99896.88
2022-09-03T02:23:07.202Z,99902.34
2022-09-03T02:25:09.140Z,99902.50
2022-09-03T02:27:10.821Z,99904.28
2022-09-03T02:29:13.548Z,99906.13
2022-09-03T02:31:15.269Z,99899.81
2022-09-03T02:33:17.035Z,99905.16
2022-09-03T02:35:18.723Z,99906.97
2022-09-03T02:37:20.459Z,99907.09
2022-09-03T02:39:22.187Z,99900.75
2022-09-03T02:41:24.016Z,99906.13
2022-09-03T02:43:27.689Z,99911.38
2022-09-03T02:45:29.451Z,99907.09
2022-09-03T02:47:31.853Z,99910.75
2022-09-03T02:49:33.731Z,99910.53
2022-09-03T02:51:37.234Z,99916.84
2022-09-03T02:53:39.370Z,99917.84
2022-09-03T02:55:41.025Z,99907.97
2022-09-03T02:57:42.881Z,99919.78
2022-09-03T02:59:44.555Z,99924.91
2022-09-03T03:01:46.487Z,99916.09
2022-09-03T03:03:48.493Z,99916.75
2022-09-03T03:05:54.443Z,99916.09
2022-09-03T03:07:56.156Z,99924.16
2022-09-03T03:09:58.831Z,99928.78
2022-09-03T03:12:00.653Z,99932.22
2022-09-03T03:14:02.520Z,99927.50
2022-09-03T03:16:05.305Z,99920.53
2022-09-03T03:18:07.035Z,99929.53
2022-09-03T03:20:09.329Z,99927.59
2022-09-03T03:22:10.976Z,99935.78
2022-09-03T03:24:12.692Z,99939.50
2022-09-03T03:26:16.035Z,99939.41
2022-09-03T03:28:17.809Z,99935.88
2022-09-03T03:30:19.590Z,99941.13
2022-09-03T03:32:21.291Z,99946.50
2022-09-03T03:34:23.017Z,99942.31
2022-09-03T03:36:26.137Z,99951.13
2022-09-03T03:38:27.820Z,99951.31
2022-09-03T03:40:29.561Z,99954.13
2022-09-03T03:42:33.790Z,99955.97
2022-09-03T03:44:35.499Z,99955.84
2022-09-03T03:46:38.959Z,99954.25
2022-09-03T03:48:40.691Z,99956.06
2022-09-03T03:50:42.402Z,99954.34
2022-09-03T03:52:44.100Z,99954.47
2022-09-03T03:54:45.811Z,99954.34
2022-09-03T03:56:55.460Z,99958.53
2022-09-03T03:58:59.044Z,99955.97
2022-09-03T04:01:05.983Z,99963.88
2022-09-03T04:03:07.727Z,99970.25
2022-09-03T04:05:09.648Z,99963.13
2022-09-03T04:07:11.569Z,99972.41
2022-09-03T04:09:13.312Z,99969.88
2022-09-03T04:11:20.396Z,99965.50
2022-09-03T04:13:22.103Z,99973.31
2022-09-03T04:15:23.893Z,99964.66
2022-09-03T04:17:25.619Z,99971.63
2022-09-03T04:19:27.385Z,99975.25
2022-09-03T04:21:30.097Z,99974.28
2022-09-03T04:23:32.988Z,99974.28
2022-09-03T04:25:34.677Z,99967.03
2022-09-03T04:27:36.381Z,99981.38
2022-09-03T04:29:38.058Z,99979.66
2022-09-03T04:31:40.798Z,99977.94
2022-09-03T04:33:43.311Z,99979.66
2022-09-03T04:35:45.116Z,99976.22
2022-09-03T04:37:47.436Z,99981.59
2022-09-03T04:39:49.182Z,99975.38
2022-09-03T04:41:50.944Z,99978.16
2022-09-03T04:43:53.680Z,99978.16
2022-09-03T04:45:59.607Z,99980.09
2022-09-03T04:48:04.537Z,99978.38
2022-09-03T04:50:06.670Z,99978.38
2022-09-03T04:52:08.312Z,99975.72
2022-09-03T04:54:10.417Z,99976.22
2022-09-03T04:56:22.805Z,99983.53
2022-09-03T04:58:24.609Z,99991.56
2022-09-03T05:00:26.366Z,99983.94
2022-09-03T05:02:28.098Z,99992.22
2022-09-03T05:04:29.830Z,99994.06
2022-09-03T05:06:32.041Z,99988.47
2022-09-03T05:08:33.796Z,99995.66
2022-09-03T05:10:35.453Z,99993.59
2022-09-03T05:12:37.141Z,99995.44
2022-09-03T05:14:38.921Z,99994.69
2022-09-03T05:16:40.687Z,99996.41
2022-09-03T05:18:42.414Z,99993.84
2022-09-03T05:20:44.135Z,100004.47
2022-09-03T05:22:45.889Z,99994.69
2022-09-03T05:24:48.337Z,99998.34
2022-09-03T05:26:49.963Z,100000.69
2022-09-03T05:28:56.037Z,100001.66
2022-09-03T05:31:05.223Z,100009.69
2022-09-03T05:33:06.921Z,100009.81
2022-09-03T05:35:09.731Z,100016.78
2022-09-03T05:37:11.439Z,100017.66
2022-09-03T05:39:13.155Z,100015.94
2022-09-03T05:41:15.301Z,100011.66
2022-09-03T05:43:16.983Z,100019.72
2022-09-03T05:45:18.758Z,100018.81
2022-09-03T05:47:20.484Z,100012.50
2022-09-03T05:49:22.172Z,100018.63
2022-09-03T05:51:23.894Z,100020.66
2022-09-03T05:53:25.724Z,100020.34
2022-09-03T05:55:27.520Z,100020.66
2022-09-03T05:57:29.786Z,100021.31
2022-09-03T05:59:31.539Z,100010.59
2022-09-03T06:01:34.480Z,100020.56
2022-09-03T06:03:36.573Z,100019.56
2022-09-03T06:05:38.451Z,100021.50
2022-09-03T06:07:40.111Z,100030.31
2022-09-03T06:09:41.845Z,100028.59
2022-09-03T06:11:43.779Z,100033.97
2022-09-03T06:13:47.898Z,100035.66
2022-09-03T06:15:49.641Z,100033.97
2022-09-03T06:17:51.366Z,100043.09
2022-09-03T06:19:53.029Z,100035.38
2022-09-03T06:21:54.743Z,100035.13
2022-09-03T06:23:59.529Z,100037.81
2022-09-03T06:26:05.701Z,100035.25
2022-09-03T06:28:07.522Z,100042.97
2022-09-03T06:30:09.770Z,100041.88
2022-09-03T06:32:11.464Z,100039.34
2022-09-03T06:34:13.209Z,100030.31
2022-09-03T06:36:19.091Z,100043.84
2022-09-03T06:38:20.799Z,100039.34
2022-09-03T06:40:22.551Z,100033.44
2022-09-03T06:42:24.270Z,100028.78
2022-09-03T06:44:26.010Z,100034.16
2022-09-03T06:46:27.708Z,100039.53
2022-09-03T06:48:30.694Z,100037.81
2022-09-03T06:50:34.632Z,100047.38
2022-09-03T06:52:36.588Z,100037.59
2022-09-03T06:54:38.256Z,100046.63
2022-09-03T06:56:41.351Z,100049.31
2022-09-03T06:58:44.984Z,100040.50
2022-09-03T07:00:46.814Z,100037.81
2022-09-03T07:02:48.560Z,100047.47
2022-09-03T07:04:50.235Z,100049.41
2022-09-03T07:06:52.192Z,100045.25
2022-09-03T07:08:54.267Z,100059.28
2022-09-03T07:10:56.121Z,100042.56
2022-09-03T07:12:57.818Z,100047.56
2022-09-03T07:14:59.588Z,100042.97
2022-09-03T07:17:02.081Z,100052.84
2022-09-03T07:19:04.714Z,100048.56
2022-09-03T07:21:08.492Z,100050.47
2022-09-03T07:23:10.230Z,100055.22
2022-09-03T07:25:11.910Z,100048.97
2022-09-03T07:27:15.152Z,100050.47
2022-09-03T07:29:17.554Z,100045.97
2022-09-03T07:31:33.203Z,100046.84
2022-09-03T07:33:34.940Z,100055.00
2022-09-03T07:35:37.277Z,100050.69
2022-09-03T07:37:41.597Z,100054.00
2022-09-03T07:39:44.094Z,100054.25
2022-09-03T07:41:46.463Z,100055.00
2022-09-03T07:43:48.209Z,100053.59
2022-09-03T07:45:53.131Z,100046.75
2022-09-03T07:47:54.865Z,100053.47
2022-09-03T07:49:56.517Z,100059.50
2022-09-03T07:51:58.234Z,100053.59
2022-09-03T07:54:00.979Z,100065.81
2022-09-03T07:56:07.189Z,100066.59
2022-09-03T07:58:08.928Z,100069.78
2022-09-03T08:00:11.105Z,100062.81
2022-09-03T08:02:12.901Z,100058.22
2022-09-03T08:04:14.618Z,100066.25
2022-09-03T08:06:17.169Z,100054.47
2022-09-03T08:08:18.861Z,100067.03
2022-09-03T08:10:21.495Z,100051.56
2022-09-03T08:12:23.229Z,100053.38
2022-09-03T08:14:24.928Z,100041.69
2022-09-03T08:16:26.842Z,100046.28
2022-09-03T08:18:28.564Z,100039.31
2022-09-03T08:20:31.346Z,100052.41
2022-09-03T08:22:33.229Z,100048.03
2022-09-03T08:24:34.865Z,100050.69
2022-09-03T08:26:38.146Z,100054.34
2022-09-03T08:28:40.022Z,100058.75
2022-09-03T08:30:41.723Z,100056.91
2022-09-03T08:32:43.461Z,100050.94
2022-09-03T08:34:45.212Z,100052.63
2022-09-03T08:36:47.178Z,100053.47
2022-09-03T08:38:49.602Z,100048.13
2022-09-03T08:40:51.271Z,100050.81
2022-09-03T08:43:17.576Z,100041.91
2022-09-03T08:45:20.080Z,100041.59
2022-09-03T08:47:30.714Z,100043.06
2022-09-03T08:49:32.282Z,100043.06
2022-09-03T08:51:33.983Z,100030.19
2022-09-03T08:53:44.701Z,100049.31
2022-09-03T08:55:50.588Z,100030.13
2022-09-03T08:58:02.478Z,100044.06
2022-09-03T09:00:04.461Z,100043.84
2022-09-03T09:02:25.012Z,100043.84
2022-09-03T09:05:00.573Z,100044.06
2022-09-03T09:07:21.917Z,100048.31
2022-09-03T09:09:39.246Z,100043.50
2022-09-03T09:12:11.970Z,100046.41
2022-09-03T09:14:29.696Z,100042.31
2022-09-03T09:16:57.291Z,100037.41
2022-09-03T09:19:08.445Z,100045.88
2022-09-03T09:21:21.355Z,100043.41
2022-09-03T09:23:33.644Z,100041.59
2022-09-03T09:25:36.537Z,100045.13
2022-09-03T09:27:38.415Z,100061.22
2022-09-03T09:29:40.079Z,100038.91
2022-09-03T09:31:41.795Z,100036.09
2022-09-03T09:33:43.540Z,100033.31
2022-09-03T09:35:45.509Z,100032.25
2022-09-03T09:37:54.423Z,100042.75
2022-09-03T09:40:00.482Z,100040.63
2022-09-03T09:42:07.212Z,100028.91
2022-09-03T09:44:08.975Z,100047.50
2022-09-03T09:46:25.150Z,100036.00
2022-09-03T09:48:31.821Z,100028.59
2022-09-03T09:50:33.602Z,100026.66
2022-09-03T09:52:35.350Z,100033.00
2022-09-03T09:54:37.081Z,100020.44
2022-09-03T09:56:38.837Z,100024.13
2022-09-03T09:58:40.647Z,100017.47
2022-09-03T10:00:42.360Z,100011.88
2022-09-03T10:02:54.078Z,100015.50
2022-09-03T10:05:01.534Z,100011.66
2022-09-03T10:07:23.035Z,100021.44
2022-09-03T10:09:31.084Z,100019.78
2022-09-03T10:11:34.812Z,100027.50
2022-09-03T10:13:41.273Z,100007.38
2022-09-03T10:15:54.925Z,100009.94
2022-09-03T10:17:59.653Z,100011.13
2022-09-03T10:20:05.434Z,100013.81
2022-09-03T10:22:13.152Z,100009.06
2022-09-03T10:24:14.779Z,100017.25
2022-09-03T10:26:21.426Z,100015.50
2022-09-03T10:28:28.214Z,100009.94
2022-09-03T10:30:29.964Z,100019.50
2022-09-03T10:32:38.994Z,100014.22
2022-09-03T10:34:42.221Z,100008.00
2022-09-03T10:37:02.332Z,100019.91
2022-09-03T10:39:15.147Z,100016.38
2022-09-03T10:41:42.747Z,100033.31
2022-09-03T10:43:50.350Z,100031.16
2022-09-03T10:46:28.438Z,100025.59
2022-09-03T10:48:54.369Z,100020.44
2022-09-03T10:51:06.163Z,100012.31
2022-09-03T10:53:11.502Z,100022.19
2022-09-03T10:55:48.306Z,100029.03
2022-09-03T10:58:09.840Z,100011.84
2022-09-03T11:00:12.701Z,100007.38
2022-09-03T11:02:34.176Z,100010.56
2022-09-03T11:04:53.259Z,100018.75
2022-09-03T11:07:01.616Z,100011.31
2022-09-03T11:09:38.497Z,100011.53
2022-09-03T11:11:46.204Z,100037.59
2022-09-03T11:14:00.201Z,100030.94
2022-09-03T11:16:17.670Z,100017.53
2022-09-03T11:18:25.970Z,100011.84
2022-09-03T11:20:27.859Z,100039.13
2022-09-03T11:22:29.876Z,100028.91
2022-09-03T11:24:31.652Z,100021.97
2022-09-03T11:26:33.540Z,100030.72
2022-09-03T11:28:41.152Z,100026.66
2022-09-03T11:31:16.803Z,100020.31
2022-09-03T11:33:19.918Z,100011.31
2022-09-03T11:35:29.569Z,100017.97
2022-09-03T11:37:31.265Z,100020.56
2022-09-03T11:39:32.893Z,100002.22
2022-09-03T11:41:35.267Z,99997.19
2022-09-03T11:43:36.994Z,100032.03
2022-09-03T11:45:39.125Z,100005.66
2022-09-03T11:47:44.745Z,99997.72
2022-09-03T11:49:50.894Z,100003.94
2022-09-03T11:52:12.735Z,100001.56
2022-09-03T11:54:14.381Z,100000.41
2022-09-03T11:56:19.327Z,99997.06
2022-09-03T11:58:32.834Z,100004.78
2022-09-03T12:00:34.575Z,100000.28
2022-09-03T12:02:36.841Z,99997.94
2022-09-03T12:05:01.738Z,100001.78
2022-09-03T12:07:20.112Z,99989.78
2022-09-03T12:09:52.931Z,99990.19
2022-09-03T12:12:25.602Z,99986.34
2022-09-03T12:14:38.855Z,99977.13
2022-09-03T12:17:06.295Z,99977.13
2022-09-03T12:19:32.580Z,99977.84
2022-09-03T12:21:38.862Z,99969.59
2022-09-03T12:23:45.513Z,99978.81
2022-09-03T12:25:47.232Z,99992.31
2022-09-03T12:27:48.982Z,99971.00
2022-09-03T12:30:00.785Z,99973.13
2022-09-03T12:32:07.494Z,99967.84
2022-09-03T12:34:13.384Z,99980.53
2022-09-03T12:36:15.273Z,99961.75
2022-09-03T12:38:23.771Z,99961.31
2022-09-03T12:40:29.539Z,99960.88
2022-09-03T12:42:32.523Z,99960.13
2022-09-03T12:44:37.139Z,99959.91
2022-09-03T12:46:38.911Z,99958.66
2022-09-03T12:49:29.372Z,99958.66
2022-09-03T12:53:36.136Z,99953.38
2022-09-03T12:55:49.428Z,99948.03
2022-09-03T12:58:11.532Z,99948.53
2022-09-03T13:00:16.721Z,99946.59
2022-09-03T13:02:22.883Z,99935.88
2022-09-03T13:04:34.878Z,99938.47
2022-09-03T13:07:01.379Z,99946.38
2022-09-03T13:09:04.943Z,99940.16
2022-09-03T13:11:06.789Z,99943.59
2022-09-03T13:13:28.319Z,99938.22
2022-09-03T13:15:30.253Z,99932.00
2022-09-03T13:17:49.532Z,99933.81
2022-09-03T13:19:56.991Z,99935.63
2022-09-03T13:22:20.529Z,99937.56
2022-09-03T13:24:44.409Z,99939.50
2022-09-03T13:26:49.221Z,99935.88
2022-09-03T13:29:09.458Z,99939.63
2022-09-03T13:31:33.625Z,99931.59
2022-09-03T13:33:38.683Z,99932.44
2022-09-03T13:35:46.842Z,99943.19
2022-09-03T13:37:57.153Z,99938.78
2022-09-03T13:39:59.768Z,99931.59
2022-09-03T13:42:31.798Z,99936.97
2022-09-03T13:44:44.354Z,99935.78
2022-09-03T13:46:52.811Z,99932.22
2022-09-03T13:48:59.593Z,99925.25
2022-09-03T13:51:09.886Z,99926.84
2022-09-03T13:53:23.956Z,99926.75
2022-09-03T13:55:36.111Z,99924.69
2022-09-03T13:57:41.086Z,99925.41
2022-09-03T13:59:53.077Z,99922.53
2022-09-03T14:02:16.467Z,99913.91
2022-09-03T14:04:22.241Z,99922.47
2022-09-03T14:06:43.273Z,99926.75
2022-09-03T14:09:17.145Z,99911.88
2022-09-03T14:11:18.777Z,99906.59
2022-09-03T14:13:57.934Z,99910.88
2022-09-03T14:16:04.101Z,99904.66
2022-09-03T14:18:23.921Z,99915.06
2022-09-03T14:20:34.235Z,99893.28
2022-09-03T14:22:51.230Z,99896.72
2022-09-03T14:25:02.849Z,99891.34
2022-09-03T14:27:04.731Z,99889.09
2022-09-03T14:29:12.423Z,99895.47
2022-09-03T14:31:27.706Z,99888.59
2022-09-03T14:34:00.084Z,99898.03
2022-09-03T14:36:23.280Z,99892.03
2022-09-03T14:38:50.575Z,99897.63
2022-09-03T14:41:02.566Z,99901.25
2022-09-03T14:43:25.939Z,99899.56
2022-09-03T14:45:45.985Z,99898.72
2022-09-03T14:47:54.968Z,99900.66
2022-09-03T14:50:04.311Z,99904.09
2022-09-03T14:52:43.204Z,99895.91
2022-09-03T14:55:06.264Z,99887.50
2022-09-03T14:57:21.029Z,99884.47
2022-09-03T14:59:39.919Z,99889.66
2022-09-03T15:01:41.702Z,99874.72
2022-09-03T15:04:14.395Z,99876.66
2022-09-03T15:06:45.224Z,99879.34
2022-09-03T15:09:10.210Z,99876.91
2022-09-03T15:11:19.281Z,99870.56
2022-09-03T15:13:22.434Z,99881.28
2022-09-03T15:15:30.952Z,99865.44
2022-09-03T15:17:50.760Z,99868.84
2022-09-03T15:20:04.473Z,99870.16
2022-09-03T15:22:36.635Z,99863.69
2022-09-03T15:24:58.704Z,99864.69
2022-09-03T15:27:24.820Z,99858.56
2022-09-03T15:29:37.296Z,99865.66
2022-09-03T15:31:46.842Z,99865.66
2022-09-03T15:33:54.562Z,99864.69
2022-09-03T15:36:08.393Z,99868.44
2022-09-03T15:38:25.533Z,99865.78
2022-09-03T15:40:56.607Z,99866.84
2022-09-03T15:43:07.449Z,99871.25
2022-09-03T15:45:33.206Z,99870.41
2022-09-03T15:47:51.095Z,99887.34
2022-09-03T15:50:27.071Z,99871.25
2022-09-03T15:52:33.004Z,99874.91
2022-09-03T15:54:59.538Z,99872.22
2022-09-03T15:57:24.482Z,99870.50
2022-09-03T15:59:29.977Z,99870.41
2022-09-03T16:01:35.619Z,99871.38
2022-09-03T16:03:44.009Z,99871.25
2022-09-03T16:05:49.117Z,99858.06
2022-09-03T16:08:23.924Z,99862.44
2022-09-03T16:10:56.847Z,99860.75
2022-09-03T16:13:24.853Z,99859.75
2022-09-03T16:15:30.727Z,99865.03
2022-09-03T16:17:56.921Z,99866.72
2022-09-03T16:20:31.054Z,99879.53
2022-09-03T16:22:40.451Z,99876.94
2022-09-03T16:24:59.952Z,99877.69
2022-09-03T16:27:22.775Z,99866.13
2022-09-03T16:29:29.217Z,99870.72
2022-09-03T16:31:51.633Z,99880.47
2022-09-03T16:34:17.975Z,99870.63
2022-09-03T16:36:37.897Z,99882.22
2022-09-03T16:39:07.522Z,99867.81
2022-09-03T16:41:42.548Z,99882.22
2022-09-03T16:44:08.783Z,99875.13
2022-09-03T16:46:24.314Z,99883.06
2022-09-03T16:49:04.460Z,99878.78
2022-09-03T16:51:10.961Z,99889.50
2022-09-03T16:53:15.974Z,99887.56
2022-09-03T16:55:48.433Z,99887.56
2022-09-03T16:58:11.764Z,99893.91
2022-09-03T17:00:16.487Z,99892.94
2022-09-03T17:02:43.102Z,99910.00
2022-09-03T17:05:03.153Z,99912.91
2022-09-03T17:07:33.694Z,99914.84
2022-09-03T17:09:44.753Z,99918.50
2022-09-03T17:12:13.543Z,99927.72
2022-09-03T17:14:50.647Z,99930.31
2022-09-03T17:17:07.448Z,99924.28
2022-09-03T17:19:46.545Z,99917.44
2022-09-03T17:22:10.871Z,99912.69
2022-09-03T17:24:21.479Z,99901.97
2022-09-03T17:26:35.500Z,99900.88
2022-09-03T17:28:59.587Z,99903.38
2022-09-03T17:31:14.484Z,99895.53
2022-09-03T17:33:21.726Z,99905.94
2022-09-03T17:35:29.583Z,99905.09
2022-09-03T17:37:53.032Z,99898.75
2022-09-03T17:40:01.092Z,99901.75
2022-09-03T17:42:20.487Z,99893.38
2022-09-03T17:44:46.449Z,99899.63
2022-09-03T17:47:10.743Z,99902.19
2022-09-03T17:49:47.892Z,99895.97
2022-09-03T17:52:05.535Z,99895.22
2022-09-03T17:54:45.542Z,99897.78
2022-09-03T17:57:05.131Z,99895.13
2022-09-03T17:59:33.138Z,99888.03
2022-09-03T18:01:38.043Z,99892.28
2022-09-03T18:03:49.724Z,99889.63
2022-09-03T18:05:59.433Z,99894.25
2022-09-03T18:08:09.368Z,99888.03
2022-09-03T18:10:41.218Z,99896.81
2022-09-03T18:13:23.702Z,99900.47
2022-09-03T18:15:37.066Z,99903.16
2022-09-03T18:17:46.025Z,99896.81
2022-09-03T18:19:56.023Z,99894.97
2022-09-03T18:22:00.223Z,99895.13
2022-09-03T18:24:28.272Z,99892.28
2022-09-03T18:26:32.011Z,99887.81
2022-09-03T18:28:51.489Z,99887.81
2022-09-03T18:30:53.401Z,99889.75
2022-09-03T18:32:55.677Z,99888.75
2022-09-03T18:34:57.418Z,99891.44
2022-09-03T18:36:59.674Z,99893.19
2022-09-03T18:39:13.452Z,99895.13
2022-09-03T18:41:36.943Z,99887.06
2022-09-03T18:44:00.395Z,99891.44
2022-09-03T18:46:46.290Z,99888.75
2022-09-03T18:48:30.024Z,99888.66
2022-09-03T18:50:53.669Z,99872.44
2022-09-03T18:53:00.623Z,99868.03
2022-09-03T18:55:09.071Z,99868.91
2022-09-03T18:57:20.774Z,99876.09
2022-09-03T18:59:47.253Z,99877.94
2022-09-03T19:01:49.064Z,99879.63
2022-09-03T19:04:21.660Z,99876.09
2022-09-03T19:06:45.247Z,99878.03
2022-09-03T19:09:23.365Z,99878.16
2022-09-03T19:11:47.145Z,99881.47
2022-09-03T19:13:49.013Z,99879.00
2022-09-03T19:15:59.581Z,99877.19
2022-09-03T19:18:01.156Z,99878.16
2022-09-03T19:20:22.538Z,99865.59
2022-09-03T19:22:34.882Z,99865.59
2022-09-03T19:24:36.731Z,99871.06
2022-09-03T19:27:14.041Z,99862.91
2022-09-03T19:29:43.858Z,99874.50
2022-09-03T19:31:51.644Z,99881.69
2022-09-03T19:33:53.552Z,99881.69
2022-09-03T19:36:07.351Z,99887.28
2022-09-03T19:38:24.146Z,99885.66
2022-09-03T19:40:47.114Z,99887.28
2022-09-03T19:43:07.662Z,99884.72
2022-09-03T19:45:39.489Z,99880.22
2022-09-03T19:47:47.599Z,99880.94
2022-09-03T19:50:21.413Z,99891.69
2022-09-03T19:52:29.848Z,99885.47
2022-09-03T19:54:31.601Z,99881.91
2022-09-03T19:56:33.382Z,99885.47
2022-09-03T19:58:44.321Z,99875.59
2022-09-03T20:00:46.468Z,99862.16
2022-09-03T20:02:48.525Z,99857.66
2022-09-03T20:05:00.859Z,99870.13
2022-09-03T20:07:05.297Z,99866.56
2022-09-03T20:09:09.827Z,99869.22
2022-09-03T20:11:17.204Z,99875.59
2022-09-03T20:13:19.602Z,99871.91
2022-09-03T20:15:22.089Z,99873.66
2022-09-03T20:17:30.559Z,99876.66
2022-09-03T20:19:51.856Z,99875.03
2022-09-03T20:22:12.492Z,99877.72
2022-09-03T20:24:21.603Z,99879.41
2022-09-03T20:26:25.841Z,99878.69
2022-09-03T20:28:48.315Z,99883.09
2022-09-03T20:30:55.986Z,99875.03
2022-09-03T20:33:04.887Z,99871.38
2022-09-03T20:35:12.853Z,99879.41
2022-09-03T20:37:36.106Z,99872.34
2022-09-03T20:39:40.581Z,99868.69
2022-09-03T20:42:00.967Z,99865.09
2022-09-03T20:44:25.251Z,99863.31
2022-09-03T20:47:05.813Z,99868.69
2022-09-03T20:49:28.832Z,99867.78
2022-09-03T20:51:46.991Z,99873.84
2022-09-03T20:54:12.608Z,99874.94
2022-09-03T20:56:29.480Z,99873.13
2022-09-03T20:59:18.353Z,99875.03
2022-09-03T21:01:28.384Z,99867.84
2022-09-03T21:03:41.782Z,99876.84
2022-09-03T21:06:09.162Z,99877.81
2022-09-03T21:08:22.534Z,99880.50
2022-09-03T21:10:48.562Z,99874.41
2022-09-03T21:13:14.687Z,99883.28
2022-09-03T21:15:21.955Z,99890.63
2022-09-03T21:18:01.275Z,99885.25
2022-09-03T21:20:29.967Z,99883.53
2022-09-03T21:22:50.976Z,99881.59
2022-09-03T21:24:54.769Z,99883.44
2022-09-03T21:27:03.917Z,99885.25
2022-09-03T21:29:12.044Z,99888.88
2022-09-03T21:31:25.693Z,99890.63
2022-09-03T21:33:28.297Z,99890.63
2022-09-03T21:35:47.725Z,99890.63
2022-09-03T21:38:02.244Z,99883.63
2022-09-03T21:40:04.544Z,99887.19
2022-09-03T21:42:16.280Z,99900.38
2022-09-03T21:44:22.918Z,99893.06
2022-09-03T21:46:28.322Z,99891.34
2022-09-03T21:48:35.655Z,99899.38
2022-09-03T21:50:40.333Z,99897.69
2022-09-03T21:53:10.789Z,99906.59
2022-09-03T21:55:31.537Z,99904.97
2022-09-03T21:58:19.724Z,99912.09
2022-09-03T22:00:25.845Z,99909.72
2022-09-03T22:02:31.215Z,99906.06
2022-09-03T22:04:33.009Z,99904.97
2022-09-03T22:07:11.383Z,99905.72
2022-09-03T22:09:24.436Z,99900.47
2022-09-03T22:11:35.784Z,99901.34
2022-09-03T22:13:48.702Z,99901.34
2022-09-03T22:15:50.625Z,99902.19
2022-09-03T22:17:52.860Z,99895.09
2022-09-03T22:19:54.587Z,99896.94
2022-09-03T22:21:56.221Z,99901.34
2022-09-03T22:24:09.150Z,99899.53
2022-09-03T22:26:18.055Z,99900.59
2022-09-03T22:28:41.870Z,99900.47
2022-09-03T22:30:51.728Z,99899.63
2022-09-03T22:33:13.556Z,99901.56
2022-09-03T22:35:44.456Z,99904.13
2022-09-03T22:38:04.299Z,99907.78
2022-09-03T22:40:26.298Z,99901.56
2022-09-03T22:42:56.546Z,99897.91
2022-09-03T22:45:24.083Z,99902.31
2022-09-03T22:48:07.126Z,99898.78
2022-09-03T22:50:26.729Z,99891.69
2022-09-03T22:52:34.811Z,99896.19
2022-09-03T22:54:44.287Z,99890.81
2022-09-03T22:56:46.000Z,99902.31
2022-09-03T22:58:56.825Z,99891.56
2022-09-03T23:01:03.544Z,99889.97
2022-09-03T23:03:08.962Z,99896.19
2022-09-03T23:05:36.975Z,99891.81
2022-09-03T23:07:50.301Z,99892.66
2022-09-03T23:10:14.119Z,99895.34
2022-09-03T23:12:33.219Z,99889.13
2022-09-03T23:14:40.086Z,99898.13
2022-09-03T23:17:03.044Z,99898.13
2022-09-03T23:19:37.180Z,99900.94
2022-09-03T23:21:39.760Z,99899.97
2022-09-03T23:23:45.268Z,99900.81
2022-09-03T23:26:13.223Z,99895.44
2022-09-03T23:28:32.665Z,99901.69
2022-09-03T23:30:34.340Z,99892.88
2022-09-03T23:32:36.041Z,99900.06
2022-09-03T23:34:37.760Z,99902.75
2022-09-03T23:37:10.428Z,99893.00
2022-09-03T23:39:33.199Z,99894.81
2022-09-03T23:42:05.348Z,99899.44
2022-09-03T23:44:34.185Z,99902.75
2022-09-03T23:46:43.213Z,99909.09
2022-09-03T23:49:01.054Z,99910.78
2022-09-03T23:51:27.275Z,99903.72
2022-09-03T23:53:44.422Z,99909.09
2022-09-03T23:56:01.528Z,99911.88
2022-09-03T23:58:11.185Z,99909.31
